Flight Track Log - Related Links

Times and Time Zones

All times are in EDT time to prevent confusion due to time zone crossing. See the UCA3598 flight status page for this flight to view local times or setup timezone preferences in your user account.

Time Position Orientation Groundspeed Altitude Reporting Facility
EDT Latitude Longitude Course Direction KTS MPH feet Rate Location/Type
Sun 10:04:42 PM 39.0333 -77.4500 347° North 163 188 4,100  Level Potomac TRACON
Sun 10:06:14 PM 39.1033 -77.4586 355° North 181 208 6,200 1,476 Climbing Washington Center
Sun 10:06:48 PM 39.1333 -77.4500 13° North 182 209 7,200 1,307 Climbing Potomac TRACON
Sun 10:08:00 PM 39.4180 -77.2555 North  Level Estimated
Sun 10:09:00 PM 39.4851 -77.2261 North  Level Estimated
Sun 10:09:13 PM 39.2547 -77.4919 345° North 187 215 10,100  Level Washington Center
Sun 10:10:00 PM 39.5541 -77.2474 347° North  Level FlightAware Approximate
Sun 10:10:13 PM 39.3067 -77.5067 348° North 187 215 11,100  Level Washington Center
Sun 10:11:14 PM 39.3606 -77.5242 346° North 187 215 12,300 1,190 Climbing Washington Center
Sun 10:12:14 PM 39.4150 -77.5122 10° North 187 215 13,500 1,140 Climbing Washington Center
Sun 10:13:15 PM 39.4694 -77.4975 12° North 192 221 14,600 1,091 Climbing Washington Center
Sun 10:14:15 PM 39.5239 -77.4856 10° North 197 227 15,700 700 Climbing Washington Center
Sun 10:15:15 PM 39.5864 -77.4711 10° North 202 232 16,000 128 Climbing Washington Center
Sun 10:16:36 PM 39.6886 -77.4536 North 240 276 16,000  Level New York Center
Sun 10:17:36 PM 39.7533 -77.4519 North 251 289 16,000  Level New York Center
Sun 10:18:36 PM 39.8367 -77.4517 360° North 267 307 16,000  Level New York Center
Sun 10:19:36 PM 39.9036 -77.4500 North 267 307 16,000  Level New York Center
Sun 10:20:36 PM 39.9850 -77.4494 360° North 267 307 16,000  Level New York Center
Sun 10:21:36 PM 40.0517 -77.4478 North 267 307 16,000 1,500 Level New York Center
Sun 10:22:36 PM 40.1158 -77.4214 17° North 237 273 19,000 1,500 Climbing New York Center
Sun 10:23:36 PM 40.1611 -77.3958 23° Northeast 197 227 19,000  Level New York Center
Sun 10:24:36 PM 40.2233 -77.3636 22° Northeast 202 232 19,000  Level New York Center
Sun 10:25:36 PM 40.2811 -77.3339 21° North 225 259 19,000  Level New York Center
Sun 10:26:36 PM 40.3542 -77.2972 21° North 243 280 19,000  Level New York Center
Sun 10:27:36 PM 40.4164 -77.2647 22° Northeast 256 295 19,000  Level New York Center
Sun 10:28:36 PM 40.4894 -77.2253 22° Northeast 256 295 19,000  Level New York Center
Sun 10:29:36 PM 40.5517 -77.1928 22° Northeast 256 295 19,000 -250 Level New York Center
Sun 10:30:36 PM 40.6311 -77.1511 22° Northeast 263 303 18,500 -450 Descending New York Center
Sun 10:31:36 PM 40.6931 -77.1211 20° North 263 303 18,100 -400 Descending New York Center
Sun 10:32:36 PM 40.7661 -77.0814 22° Northeast 269 310 17,700 -450 Descending New York Center
Sun 10:33:36 PM 40.8389 -77.0442 21° North 274 315 17,200 -350 Descending New York Center
Sun 10:34:36 PM 40.9119 -77.0042 22° Northeast 279 321 17,000 -100 Descending New York Center
Sun 10:35:36 PM 40.9825 -76.9667 22° Northeast 279 321 17,000  Level New York Center
Sun 10:36:36 PM 41.0533 -76.9292 22° Northeast 279 321 17,000  Level New York Center
Sun 10:37:36 PM 41.1242 -76.8914 22° Northeast 279 321 17,000  Level New York Center
Sun 10:38:36 PM 41.1925 -76.8564 21° North 274 315 17,000  Level New York Center
Sun 10:39:36 PM 41.2611 -76.8183 23° Northeast 274 315 17,000  Level New York Center
Sun 10:40:36 PM 41.3317 -76.7831 21° North 274 315 17,000  Level New York Center
Sun 10:41:36 PM 41.3967 -76.7336 30° Northeast 268 308 17,000  Level New York Center
Sun 10:42:36 PM 41.4683 -76.6736 32° Northeast 268 308 17,000 -150 Level New York Center
Sun 10:43:36 PM 41.5333 -76.6239 30° Northeast 273 314 16,700 -900 Descending New York Center
Sun 10:44:36 PM 41.6025 -76.5717 29° Northeast 278 320 15,200 -1,550 Descending New York Center
Sun 10:45:36 PM 41.6633 -76.5214 32° Northeast 284 327 13,600 -1,750 Descending New York Center
Sun 10:46:36 PM 41.7289 -76.4575 36° Northeast 284 327 11,700 -1,950 Descending New York Center
Sun 10:47:36 PM 41.7944 -76.3908 37° Northeast 279 321 9,700 -2,100 Descending New York Center
Sun 10:48:36 PM 41.8536 -76.3317 37° Northeast 267 307 7,500 -2,050 Descending New York Center
Sun 10:49:36 PM 41.9103 -76.2778 35° Northeast 262 302 5,600 -1,650 Descending New York Center
Sun 10:50:36 PM 41.9539 -76.2342 37° Northeast 228 262 4,200 -950 Descending New York Center
Sun 10:51:36 PM 41.9956 -76.1903 38° Northeast 201 231 3,700 -300 Descending New York Center
Sun 10:52:36 PM 42.0333 -76.1317 49° Northeast 183 211 3,600 -50 Descending New York Center
Sun 10:53:36 PM 42.0672 -76.0731 52° Northeast 183 211 3,600  Level New York Center
Sun 10:54:36 PM 42.1011 -76.0172 51° Northeast 183 211 3,600 -200 Level New York Center
Sun 10:55:36 PM 42.1283 -75.9661 54° Northeast 181 208 3,200 -500 Descending New York Center
Sun 10:56:36 PM 42.1567 -75.9375 37° Northeast 150 173 2,600 -600 Descending New York Center
Sun 10:57:36 PM 42.1808 -75.9564 330° Northwest 97 112 2,000 -300 Descending New York Center
Sun 10:58:36 PM 42.2061 -75.9444 19° North 97 112 2,000  Level New York Center

Login

Don't have an account? Register now (free) for customized features, flight alerts, and more!